AirNav   Everest Fuels
 
 1402 users online  

42GA Matthews Heliport
Marietta, Georgia, USA

GOING TO MARIETTA?


FAA INFORMATION EFFECTIVE 25 MARCH 2021

Location

FAA Identifier: 42GA
Lat/Long: 33-58-51.3640N 084-33-47.7580W
33-58.856067N 084-33.795967W
33.9809344,-84.5632661
(estimated)
Elevation: 1167 ft. / 356 m (estimated)
Variation: 02W (1986)
From city: 2 miles NW of MARIETTA, GA
Time zone: UTC -4 (UTC -5 during Standard Time)
Zip code: 30060

Heliport Operations

Heliport use: Private use. Permission required prior to landing
Activation date: 03/1986
Control tower: no
ARTCC: ATLANTA CENTER
FSS: MACON FLIGHT SERVICE STATION
Attendance: UNATNDD
Wind indicator: yes
Segmented circle: no

Heliport Communications

WX AWOS-3PT at RYY (2.6 nm NW): PHONE 770-425-3406
WX ASOS at FTY (12 nm S): PHONE 404-696-5660
WX ASOS at PDK (14 nm SE): 128.4 (770-457-1691)
WX ASOS at VPC (17 nm NW): 120.525 (770-606-0375)
WX AWOS-3 at PUJ (19 nm W): 126.225 (770-445-3870)

Nearby radio navigation aids

VOR radial/distance  VOR name  Freq  Var
PDKr301/14.6PEACHTREE VOR/DME116.6005W
ATLr348/22.1ATLANTA VORTAC116.9005W
RMGr111/29.7ROME VORTAC115.4001E

 
NDB name  Hdg/Dist  Freq  Var  ID
FLANC021/13.734405WFT ..-. -
CHERO198/16.741505WDJD -.. .--- -..
FLOWERY BRANCH251/35.336503WFKV ..-. -.- ...-
CARROLLTON053/37.727804WGPQ --. .--. --.-

Heliport Services

Runway Information

Helipad H1

Dimensions: 25 x 25 ft. / 8 x 8 m
Surface: concrete
Traffic pattern: leftleft

Heliport Ownership and Management from official FAA records

Ownership: Privately-owned
Owner: MATSCO INC.
1600 KENVIEW DR
MARIETTA, GA 30061
Phone 404-422-7520
Manager: DAVID M. FORREST

Additional Remarks

A51-H1 60' BLDG W OF PAD; PLINES 500' S OF PAD MARKED WITH ORANGE BALLS.
FOR CD CTC ATLANTA APCH AT 678-364-6131.

Instrument Procedures

There are no published instrument procedures at 42GA.

Some nearby airports with instrument procedures:

KRYY - Cobb County International Airport-McCollum Field (3 nm NW)
KMGE - Dobbins Air Reserve Base (5 nm SE)
KFTY - Fulton County Executive Airport/Charlie Brown Field (12 nm S)
KPDK - Dekalb-Peachtree Airport (14 nm SE)
KVPC - Cartersville Airport (17 nm NW)
KPUJ - Paulding Northwest Atlanta Airport (19 nm W)
 
Loc | Ops | Rwys | IFR | FBO | Links
Com | Nav | Svcs | Stats | Notes
Area around 42GA (Matthews Heliport)
 
Road maps at: MapQuest Bing Google
 
Aerial photo
No photo
 
Sectional chart

 
Airport distance calculator
Flying to Matthews Heliport? Find the distance to fly.

From to 42GA

Sunrise and sunset
Times for 12-Apr-2021
 Local
(UTC-4)
 Zulu
(UTC)
Morning civil twilight06:4710:47
Sunrise07:1211:12
Sunset20:0600:06
Evening civil twilight20:3200:32

Current date and time
Zulu (UTC)  12-Apr-2021 21:47:41
Local (UTC-4)  12-Apr-2021 17:47:41
 
METAR
KRYY 
3nm NW 
122050Z 29010G18KT 10SM CLR 28/07 A2986 RMK AO2 SLP834 6//// T02780067 58007 PNO $
KMGE 
4nm SE 
122056Z 29012G20KT 10SM FEW250 28/05 A2985 RMK AO2A SLP103 T02780048 56006 $
KFTY 
12nm S 
122053Z 32011G19KT 10SM CLR 28/04 A2985 RMK AO2 SLP101 T02830044 58008
KPDK 
14nm SE 
122053Z 30007G19KT 260V330 10SM CLR 27/07 A2985 RMK AO2 SLP099 T02720067 58006
KVPC 
17nm NW 
122053Z AUTO 10SM CLR 28/08 A2985 RMK AO2 SLP099 T02830078 56009
KPUJ 
19nm W 
122135Z AUTO 31011G18KT 10SM CLR 27/05 A2988 RMK AO2
TAF
KRYY 
3nm NW 
121721Z 1218/1318 29008G16KT P6SM SKC FM130000 30004KT P6SM FEW250 FM131300 02003KT P6SM FEW250
KMGE 
4nm SE 
121300Z 1213/1319 28009KT 9999 SKC QNH2984INS BECMG 1214/1215 29012G18KT 9999 SKC QNH2986INS BECMG 1216/1217 29015G25KT 9999 FEW250 QNH2984INS BECMG 1223/1224 29009KT 9999 SCT250 QNH2988INS BECMG 1314/1315 24012KT 9999 FEW060 SCT150 QNH3004INS TX27/1221Z TN12/1312Z
KFTY 
12nm S 
121930Z 1220/1318 29010G21KT P6SM SKC FM130000 31005KT P6SM FEW250 FM131200 02003KT P6SM FEW250
KPDK 
14nm SE 
121930Z 1220/1318 29012G22KT P6SM SKC FM130000 28005KT P6SM SKC FM131200 02003KT P6SM FEW250
NOTAMs
Click for the latest NOTAMs
NOTAMs are issued by the DoD/FAA and will open in a separate window not controlled by AirNav.

 

 
 

Would you like to see your business listed on this page?

 If your business provides an interesting product or service to pilots, flight crews, aircraft, or users of the Matthews Heliport, you should consider listing it here.  To start the listing process, click on the button below
 
Add a business
 

Other Pages about Matthews Heliport

Update a link
 
Copyright © AirNav, LLC. All rights reserved. Privacy Policy  Contact